createdAt,value
2023-05-12T00:00:11.681Z,22.91
2023-05-12T00:01:11.541Z,22.91
2023-05-12T00:02:11.594Z,22.91
2023-05-12T00:03:11.672Z,22.92
2023-05-12T00:04:11.909Z,22.94
2023-05-12T00:05:12.235Z,22.97
2023-05-12T00:06:11.809Z,22.91
2023-05-12T00:07:11.855Z,22.94
2023-05-12T00:08:11.897Z,22.95
2023-05-12T00:09:11.946Z,22.87
2023-05-12T00:10:12.037Z,22.95
2023-05-12T00:11:12.082Z,22.91
2023-05-12T00:12:12.118Z,22.89
2023-05-12T00:13:12.220Z,22.91
2023-05-12T00:14:12.184Z,22.91
2023-05-12T00:15:12.250Z,22.95
2023-05-12T00:16:12.377Z,22.94
2023-05-12T00:17:12.385Z,22.95
2023-05-12T00:18:12.433Z,22.94
2023-05-12T00:19:12.555Z,22.92
2023-05-12T00:20:12.511Z,22.97
2023-05-12T00:21:12.600Z,22.89
2023-05-12T00:22:12.656Z,22.94
2023-05-12T00:23:12.673Z,22.95
2023-05-12T00:24:13.765Z,22.97
2023-05-12T00:25:12.735Z,22.92
2023-05-12T00:26:13.188Z,22.95
2023-05-12T00:27:12.862Z,22.97
2023-05-12T00:28:12.897Z,22.92
2023-05-12T00:29:12.965Z,22.98
2023-05-12T00:30:13.019Z,22.94
2023-05-12T00:31:13.228Z,22.97
2023-05-12T00:32:13.084Z,22.87
2023-05-12T00:33:13.220Z,22.88
2023-05-12T00:34:13.145Z,22.95
2023-05-12T00:35:13.260Z,22.94
2023-05-12T00:36:13.726Z,22.92
2023-05-12T00:37:13.327Z,22.87
2023-05-12T00:38:13.364Z,22.95
2023-05-12T00:39:13.418Z,22.89
2023-05-12T00:40:13.470Z,22.95
2023-05-12T00:41:14.216Z,22.94
2023-05-12T00:42:13.564Z,22.92
2023-05-12T00:43:13.590Z,22.99
2023-05-12T00:44:13.659Z,22.91
2023-05-12T00:45:13.706Z,22.94
2023-05-12T00:46:13.860Z,22.99
2023-05-12T00:47:13.832Z,22.98
2023-05-12T00:48:13.906Z,22.92
2023-05-12T00:49:13.938Z,22.92
2023-05-12T00:50:13.988Z,22.97
2023-05-12T00:51:14.093Z,22.98
2023-05-12T00:52:14.120Z,22.95
2023-05-12T00:53:14.174Z,22.99
2023-05-12T00:54:14.223Z,22.94
2023-05-12T00:55:14.290Z,22.95
2023-05-12T00:56:14.701Z,22.91
2023-05-12T00:57:14.407Z,22.94
2023-05-12T00:58:14.435Z,22.97
2023-05-12T00:59:14.496Z,22.98
2023-05-12T01:00:14.561Z,22.94
2023-05-12T01:01:14.627Z,22.91
2023-05-12T01:02:14.667Z,22.95
2023-05-12T01:03:14.840Z,22.92
2023-05-12T01:04:14.763Z,22.97
2023-05-12T01:05:14.848Z,22.98
2023-05-12T01:06:14.871Z,22.91
2023-05-12T01:07:14.917Z,22.89
2023-05-12T01:08:14.963Z,22.97
2023-05-12T01:09:15.006Z,22.98
2023-05-12T01:10:15.079Z,22.92
2023-05-12T01:11:15.212Z,22.95
2023-05-12T01:12:15.148Z,22.94
2023-05-12T01:13:15.225Z,22.85
2023-05-12T01:14:15.262Z,22.88
2023-05-12T01:15:15.313Z,22.89
2023-05-12T01:16:15.356Z,22.92
2023-05-12T01:17:15.504Z,22.88
2023-05-12T01:18:15.516Z,22.91
2023-05-12T01:19:15.556Z,22.87
2023-05-12T01:20:15.580Z,22.95
2023-05-12T01:21:15.712Z,22.87
2023-05-12T01:22:15.676Z,22.98
2023-05-12T01:23:15.714Z,22.88
2023-05-12T01:24:15.782Z,22.92
2023-05-12T01:25:15.835Z,22.89
2023-05-12T01:26:15.864Z,22.92
2023-05-12T01:27:15.938Z,22.87
2023-05-12T01:28:15.999Z,22.91
2023-05-12T01:29:16.056Z,22.95
2023-05-12T01:30:16.119Z,22.94
2023-05-12T01:31:16.799Z,22.91
2023-05-12T01:32:16.211Z,22.92
2023-05-12T01:33:16.257Z,22.84
2023-05-12T01:34:16.321Z,22.92
2023-05-12T01:35:16.377Z,22.88
2023-05-12T01:36:16.447Z,22.94
2023-05-12T01:37:16.465Z,22.89
2023-05-12T01:38:16.542Z,22.92
2023-05-12T01:39:16.561Z,22.91
2023-05-12T01:40:16.641Z,22.94
2023-05-12T01:41:16.697Z,22.84
2023-05-12T01:42:16.761Z,22.88
2023-05-12T01:43:16.796Z,22.88
2023-05-12T01:44:16.840Z,22.84
2023-05-12T01:45:16.872Z,22.89
2023-05-12T01:46:17.231Z,22.87
2023-05-12T01:47:16.972Z,22.87
2023-05-12T01:48:17.020Z,22.87
2023-05-12T01:49:17.057Z,22.82
2023-05-12T01:50:17.207Z,22.82
2023-05-12T01:51:17.210Z,22.87
2023-05-12T01:52:17.188Z,22.87
2023-05-12T01:53:17.296Z,22.87
2023-05-12T01:54:17.328Z,22.78
2023-05-12T01:55:17.422Z,22.82
2023-05-12T01:56:17.471Z,22.87
2023-05-12T01:57:17.470Z,22.91
2023-05-12T01:58:17.533Z,22.84
2023-05-12T01:59:17.574Z,22.85
2023-05-12T02:00:17.920Z,22.88
2023-05-12T02:01:17.743Z,22.87
2023-05-12T02:02:17.806Z,22.91
2023-05-12T02:03:17.804Z,22.91
2023-05-12T02:04:17.867Z,22.87
2023-05-12T02:05:17.901Z,22.87
2023-05-12T02:06:18.196Z,22.84
2023-05-12T02:07:17.967Z,22.85
2023-05-12T02:08:18.051Z,22.88
2023-05-12T02:09:18.261Z,22.89
2023-05-12T02:10:18.497Z,22.85
2023-05-12T02:11:18.218Z,22.78
2023-05-12T02:12:18.301Z,22.82
2023-05-12T02:13:18.345Z,22.84
2023-05-12T02:14:18.433Z,22.81
2023-05-12T02:15:18.437Z,22.84
2023-05-12T02:16:18.765Z,22.76
2023-05-12T02:17:18.483Z,22.81
2023-05-12T02:18:18.555Z,22.84
2023-05-12T02:19:18.617Z,22.84
2023-05-12T02:20:18.882Z,22.84
2023-05-12T02:21:19.211Z,22.78
2023-05-12T02:22:18.754Z,22.79
2023-05-12T02:23:18.839Z,22.82
2023-05-12T02:24:18.849Z,22.82
2023-05-12T02:25:18.916Z,22.76
2023-05-12T02:26:18.968Z,22.81
2023-05-12T02:27:19.038Z,22.78
2023-05-12T02:28:19.076Z,22.85
2023-05-12T02:29:19.117Z,22.81
2023-05-12T02:30:19.336Z,22.79
2023-05-12T02:31:19.735Z,22.82
2023-05-12T02:32:19.344Z,22.84
2023-05-12T02:33:19.364Z,22.82
2023-05-12T02:34:19.456Z,22.84
2023-05-12T02:35:19.460Z,22.78
2023-05-12T02:36:19.513Z,22.74
2023-05-12T02:37:19.584Z,22.79
2023-05-12T02:38:19.652Z,22.75
2023-05-12T02:39:19.716Z,22.79
2023-05-12T02:40:19.912Z,22.79
2023-05-12T02:41:20.225Z,22.79
2023-05-12T02:42:19.854Z,22.84
2023-05-12T02:43:19.901Z,22.76
2023-05-12T02:44:19.977Z,22.76
2023-05-12T02:45:20.043Z,22.76
2023-05-12T02:46:20.306Z,22.76
2023-05-12T02:47:20.150Z,22.76
2023-05-12T02:48:20.200Z,22.76
2023-05-12T02:49:20.277Z,22.78
2023-05-12T02:50:20.470Z,22.82
2023-05-12T02:51:20.725Z,22.74
2023-05-12T02:52:20.402Z,22.72
2023-05-12T02:53:20.490Z,22.75
2023-05-12T02:54:20.539Z,22.74
2023-05-12T02:55:20.594Z,22.71
2023-05-12T02:56:20.751Z,22.76
2023-05-12T02:57:20.653Z,22.71
2023-05-12T02:58:20.743Z,22.75
2023-05-12T02:59:20.786Z,22.75
2023-05-12T03:00:21.026Z,22.75
2023-05-12T03:01:21.008Z,22.76
2023-05-12T03:02:21.009Z,22.76
2023-05-12T03:03:21.093Z,22.76
2023-05-12T03:04:21.069Z,22.78
2023-05-12T03:05:21.120Z,22.81
2023-05-12T03:06:21.250Z,22.79
2023-05-12T03:07:21.233Z,22.72
2023-05-12T03:08:21.409Z,22.79
2023-05-12T03:09:21.335Z,22.76
2023-05-12T03:10:21.522Z,22.75
2023-05-12T03:11:21.729Z,22.72
2023-05-12T03:12:21.546Z,22.71
2023-05-12T03:13:21.543Z,22.75
2023-05-12T03:14:21.612Z,22.79
2023-05-12T03:15:21.656Z,22.76
2023-05-12T03:16:21.761Z,22.76
2023-05-12T03:17:21.781Z,22.82
2023-05-12T03:18:21.829Z,22.76
2023-05-12T03:19:21.885Z,22.72
2023-05-12T03:20:22.175Z,22.76
2023-05-12T03:21:21.971Z,22.74
2023-05-12T03:22:22.241Z,22.76
2023-05-12T03:23:22.108Z,22.76
2023-05-12T03:24:22.150Z,22.75
2023-05-12T03:25:22.226Z,22.78
2023-05-12T03:26:22.300Z,22.75
2023-05-12T03:27:22.345Z,22.81
2023-05-12T03:28:22.393Z,22.75
2023-05-12T03:29:22.436Z,22.71
2023-05-12T03:30:22.487Z,22.76
2023-05-12T03:31:22.593Z,22.74
2023-05-12T03:32:22.649Z,22.79
2023-05-12T03:33:22.670Z,22.75
2023-05-12T03:34:22.701Z,22.72
2023-05-12T03:35:22.724Z,22.76
2023-05-12T03:36:22.811Z,22.79
2023-05-12T03:37:23.261Z,22.72
2023-05-12T03:38:22.888Z,22.78
2023-05-12T03:39:22.988Z,22.81
2023-05-12T03:40:23.229Z,22.75
2023-05-12T03:41:23.091Z,22.78
2023-05-12T03:42:23.273Z,22.75
2023-05-12T03:43:23.208Z,22.78
2023-05-12T03:44:23.279Z,22.74
2023-05-12T03:45:23.309Z,22.75
2023-05-12T03:46:23.483Z,22.78
2023-05-12T03:47:23.539Z,22.75
2023-05-12T03:48:23.544Z,22.76
2023-05-12T03:49:23.550Z,22.78
2023-05-12T03:50:23.597Z,22.78
2023-05-12T03:51:23.660Z,22.81
2023-05-12T03:52:25.253Z,22.82
2023-05-12T03:53:23.805Z,22.84
2023-05-12T03:54:23.867Z,22.82
2023-05-12T03:55:23.919Z,22.82
2023-05-12T03:56:23.977Z,22.82
2023-05-12T03:57:24.007Z,22.88
2023-05-12T03:58:24.076Z,22.81
2023-05-12T03:59:24.149Z,22.87
2023-05-12T04:00:24.213Z,22.79
2023-05-12T04:01:24.254Z,22.85
2023-05-12T04:02:24.860Z,22.85
2023-05-12T04:03:24.451Z,22.85
2023-05-12T04:04:24.421Z,22.85
2023-05-12T04:05:24.499Z,22.88
2023-05-12T04:06:24.562Z,22.89
2023-05-12T04:07:24.767Z,22.91
2023-05-12T04:08:24.623Z,22.92
2023-05-12T04:09:24.701Z,22.88
2023-05-12T04:10:24.749Z,22.84
2023-05-12T04:11:24.827Z,22.85
2023-05-12T04:12:24.916Z,22.89
2023-05-12T04:13:24.939Z,22.84
2023-05-12T04:14:35.220Z,22.89
2023-05-12T04:15:25.984Z,22.88
2023-05-12T04:16:25.018Z,22.92
2023-05-12T04:17:24.988Z,22.92
2023-05-12T04:18:24.978Z,22.87
2023-05-12T04:19:24.940Z,22.82
2023-05-12T04:20:24.929Z,22.84
2023-05-12T04:21:24.912Z,22.88
2023-05-12T04:22:25.826Z,22.82
2023-05-12T04:23:24.903Z,22.84
2023-05-12T04:24:24.937Z,22.88
2023-05-12T04:25:24.986Z,22.81
2023-05-12T04:26:25.091Z,22.81
2023-05-12T04:27:25.108Z,22.81
2023-05-12T04:28:25.230Z,22.88
2023-05-12T04:29:25.286Z,22.89
2023-05-12T04:30:25.293Z,22.85
2023-05-12T04:31:25.365Z,22.84
2023-05-12T04:32:25.480Z,22.84
2023-05-12T04:33:25.454Z,22.87
2023-05-12T04:34:25.528Z,22.85
2023-05-12T04:35:25.591Z,22.85
2023-05-12T04:36:25.656Z,22.88
2023-05-12T04:37:25.718Z,22.87
2023-05-12T04:38:25.748Z,22.94
2023-05-12T04:39:25.816Z,22.85
2023-05-12T04:40:25.889Z,22.88
2023-05-12T04:41:25.920Z,22.85
2023-05-12T04:42:26.292Z,22.85
2023-05-12T04:44:26.050Z,22.87
2023-05-12T04:45:26.062Z,22.82
2023-05-12T04:46:26.083Z,22.87
2023-05-12T04:47:26.333Z,22.81
2023-05-12T04:48:26.007Z,22.75
2023-05-12T04:49:26.041Z,22.78
2023-05-12T04:50:26.003Z,22.74
2023-05-12T04:51:26.031Z,22.74
2023-05-12T04:52:26.030Z,22.72
2023-05-12T04:53:25.994Z,22.74
2023-05-12T04:54:25.973Z,22.75
2023-05-12T04:55:25.965Z,22.72
2023-05-12T04:56:25.965Z,22.72
2023-05-12T04:57:26.294Z,22.74
2023-05-12T04:58:25.969Z,22.70
2023-05-12T04:59:25.925Z,22.71
2023-05-12T05:00:25.979Z,22.70
2023-05-12T05:01:25.984Z,22.68
2023-05-12T05:02:26.306Z,22.75
2023-05-12T05:03:26.030Z,22.71
2023-05-12T05:04:25.962Z,22.65
2023-05-12T05:05:25.908Z,22.65
2023-05-12T05:06:25.946Z,22.70
2023-05-12T05:07:26.299Z,22.67
2023-05-12T05:08:25.878Z,22.65
2023-05-12T05:09:25.866Z,22.70
2023-05-12T05:10:25.895Z,22.63
2023-05-12T05:11:25.871Z,22.67
2023-05-12T05:12:26.298Z,22.61
2023-05-12T05:13:25.850Z,22.61
2023-05-12T05:14:25.812Z,22.58
2023-05-12T05:15:25.881Z,22.60
2023-05-12T05:16:25.866Z,22.58
2023-05-12T05:17:26.432Z,22.57
2023-05-12T05:18:25.885Z,22.54
2023-05-12T05:19:39.168Z,22.53
2023-05-12T05:20:29.063Z,22.54
2023-05-12T05:21:25.765Z,22.53
2023-05-12T05:22:25.823Z,22.54
2023-05-12T05:23:25.837Z,22.50
2023-05-12T05:24:25.766Z,22.48
2023-05-12T05:25:25.803Z,22.51
2023-05-12T05:26:25.756Z,22.54
2023-05-12T05:27:25.817Z,22.50
2023-05-12T05:28:25.768Z,22.50
2023-05-12T05:29:25.775Z,22.46
2023-05-12T05:30:25.759Z,22.50
2023-05-12T05:31:25.802Z,22.47
2023-05-12T05:32:25.826Z,22.50
2023-05-12T05:33:25.686Z,22.54
2023-05-12T05:34:25.765Z,22.54
2023-05-12T05:35:25.710Z,22.51
2023-05-12T05:36:25.712Z,22.47
2023-05-12T05:37:25.817Z,22.54
2023-05-12T05:38:25.682Z,22.47
2023-05-12T05:39:25.683Z,22.47
2023-05-12T05:40:25.700Z,22.47
2023-05-12T05:41:25.636Z,22.54
2023-05-12T05:42:25.817Z,22.50
2023-05-12T05:43:25.617Z,22.48
2023-05-12T05:44:25.660Z,22.57
2023-05-12T05:45:28.110Z,22.50
2023-05-12T05:46:25.913Z,22.53
2023-05-12T05:47:25.882Z,22.57
2023-05-12T05:48:25.819Z,22.50
2023-05-12T05:49:25.849Z,22.57
2023-05-12T05:50:25.901Z,22.60
2023-05-12T05:51:25.962Z,22.60
2023-05-12T05:52:26.318Z,22.64
2023-05-12T05:53:26.138Z,22.68
2023-05-12T05:54:26.181Z,22.68
2023-05-12T05:55:26.224Z,22.65
2023-05-12T05:56:26.270Z,22.78
2023-05-12T05:57:26.772Z,22.76
2023-05-12T05:58:26.368Z,22.82
2023-05-12T05:59:26.443Z,22.68
2023-05-12T06:00:26.456Z,22.65
2023-05-12T06:01:26.547Z,22.58
2023-05-12T06:02:26.922Z,22.75
2023-05-12T06:03:26.743Z,22.71
2023-05-12T06:04:26.776Z,22.64
2023-05-12T06:05:26.673Z,22.65
2023-05-12T06:06:26.762Z,22.64
2023-05-12T06:07:26.748Z,22.57
2023-05-12T06:08:26.762Z,22.50
2023-05-12T06:09:26.806Z,22.51
2023-05-12T06:10:26.806Z,22.53
2023-05-12T06:11:26.819Z,22.51
2023-05-12T06:12:27.332Z,22.53
2023-05-12T06:13:26.875Z,22.54
2023-05-12T06:14:26.889Z,22.54
2023-05-12T06:15:26.858Z,22.51
2023-05-12T06:16:26.949Z,22.51
2023-05-12T06:17:26.925Z,22.79
2023-05-12T06:18:26.962Z,22.65
2023-05-12T06:19:26.932Z,22.68
2023-05-12T06:20:26.902Z,22.63
2023-05-12T06:21:26.942Z,22.60
2023-05-12T06:22:26.948Z,22.65
2023-05-12T06:23:26.939Z,22.64
2023-05-12T06:24:26.903Z,22.63
2023-05-12T06:25:26.909Z,22.61
2023-05-12T06:26:26.900Z,22.71
2023-05-12T06:27:27.277Z,22.65
2023-05-12T06:28:26.990Z,22.71
2023-05-12T06:29:26.955Z,22.71
2023-05-12T06:30:26.939Z,22.75
2023-05-12T06:31:27.035Z,22.63
2023-05-12T06:32:27.229Z,22.65
2023-05-12T06:33:27.071Z,22.63
2023-05-12T06:34:27.140Z,22.67
2023-05-12T06:35:27.214Z,22.71
2023-05-12T06:36:27.242Z,22.68
2023-05-12T06:37:27.825Z,22.67
2023-05-12T06:38:27.366Z,22.70
2023-05-12T06:39:27.423Z,22.67
2023-05-12T06:40:27.578Z,22.67
2023-05-12T06:41:28.508Z,22.68
2023-05-12T06:42:27.465Z,22.67
2023-05-12T06:43:27.436Z,22.75
2023-05-12T06:44:27.447Z,22.74
2023-05-12T06:45:27.452Z,22.76
2023-05-12T06:46:27.513Z,22.75
2023-05-12T06:47:27.857Z,22.81
2023-05-12T06:48:27.437Z,22.79
2023-05-12T06:49:27.538Z,22.84
2023-05-12T06:50:27.556Z,22.78
2023-05-12T06:51:27.664Z,22.78
2023-05-12T06:52:27.704Z,22.91
2023-05-12T06:53:27.811Z,22.92
2023-05-12T06:54:27.782Z,22.94
2023-05-12T06:55:27.887Z,23.18
2023-05-12T06:56:27.856Z,23.16
2023-05-12T06:57:27.940Z,23.10
2023-05-12T06:58:28.002Z,23.08
2023-05-12T06:59:28.116Z,23.20
2023-05-12T07:00:28.126Z,23.16
2023-05-12T07:01:28.181Z,23.09
2023-05-12T07:02:28.258Z,23.15
2023-05-12T07:03:28.409Z,23.20
2023-05-12T07:04:28.353Z,23.20
2023-05-12T07:05:28.377Z,23.27
2023-05-12T07:06:28.309Z,23.25
2023-05-12T07:07:28.349Z,23.19
2023-05-12T07:08:28.423Z,23.20
2023-05-12T07:09:28.460Z,23.12
2023-05-12T07:10:28.543Z,23.18
2023-05-12T07:11:28.579Z,23.18
2023-05-12T07:12:28.651Z,23.34
2023-05-12T07:13:28.725Z,23.47
2023-05-12T07:14:28.770Z,23.64
2023-05-12T07:15:30.037Z,23.68
2023-05-12T07:16:28.805Z,23.72
2023-05-12T07:17:28.790Z,23.71
2023-05-12T07:18:29.365Z,23.77
2023-05-12T07:19:28.763Z,23.78
2023-05-12T07:20:28.743Z,23.61
2023-05-12T07:21:28.733Z,23.68
2023-05-12T07:22:28.732Z,23.61
2023-05-12T07:23:28.833Z,23.64
2023-05-12T07:24:28.735Z,23.67
2023-05-12T07:25:28.787Z,23.87
2023-05-12T07:26:28.695Z,23.72
2023-05-12T07:27:28.690Z,23.80
2023-05-12T07:28:28.834Z,23.89
2023-05-12T07:29:28.682Z,23.84
2023-05-12T07:30:28.669Z,23.84
2023-05-12T07:31:28.873Z,23.70
2023-05-12T07:32:28.693Z,23.70
2023-05-12T07:33:28.857Z,23.63
2023-05-12T07:34:28.656Z,23.74
2023-05-12T07:35:28.653Z,23.70
2023-05-12T07:36:28.681Z,23.87
2023-05-12T07:37:28.631Z,23.70
2023-05-12T07:38:28.608Z,23.68
2023-05-12T07:39:28.634Z,23.81
2023-05-12T07:40:28.644Z,23.87
2023-05-12T07:41:28.561Z,23.92
2023-05-12T07:42:28.576Z,23.88
2023-05-12T07:43:28.582Z,23.68
2023-05-12T07:44:28.568Z,23.89
2023-05-12T07:45:28.562Z,23.75
2023-05-12T07:46:28.654Z,23.72
2023-05-12T07:47:28.553Z,23.80
2023-05-12T07:48:28.558Z,23.74
2023-05-12T07:49:28.525Z,23.84
2023-05-12T07:50:28.548Z,23.88
2023-05-12T07:51:28.545Z,23.97
2023-05-12T07:52:28.617Z,23.97
2023-05-12T07:53:28.831Z,23.91
2023-05-12T07:54:28.499Z,24.11
2023-05-12T07:55:29.316Z,24.02
2023-05-12T07:56:28.520Z,24.17
2023-05-12T07:57:28.555Z,24.12
2023-05-12T07:58:28.611Z,24.20
2023-05-12T07:59:28.563Z,24.25
2023-05-12T08:00:28.605Z,24.37
2023-05-12T08:01:28.663Z,24.44
2023-05-12T08:02:28.876Z,24.53
2023-05-12T08:03:28.719Z,24.50
2023-05-12T08:04:28.852Z,24.47
2023-05-12T08:05:28.757Z,24.56
2023-05-12T08:06:28.768Z,24.57
2023-05-12T08:07:28.826Z,24.64
2023-05-12T08:08:29.348Z,24.52
2023-05-12T08:09:28.912Z,24.64
2023-05-12T08:10:28.964Z,24.47
2023-05-12T08:11:28.984Z,24.68
2023-05-12T08:12:29.022Z,24.68
2023-05-12T08:13:29.347Z,24.70
2023-05-12T08:14:29.119Z,24.68
2023-05-12T08:15:29.139Z,24.66
2023-05-12T08:16:29.338Z,24.66
2023-05-12T08:17:29.610Z,24.42
2023-05-12T08:18:29.467Z,24.57
2023-05-12T08:19:29.329Z,24.60
2023-05-12T08:20:29.359Z,24.64
2023-05-12T08:21:29.391Z,24.64
2023-05-12T08:22:29.427Z,24.53
2023-05-12T08:23:29.864Z,24.50
2023-05-12T08:24:29.683Z,24.34
2023-05-12T08:25:29.608Z,24.56
2023-05-12T08:26:29.585Z,24.60
2023-05-12T08:27:29.709Z,24.67
2023-05-12T08:28:29.721Z,24.50
2023-05-12T08:29:29.748Z,24.60
2023-05-12T08:30:30.346Z,24.44
2023-05-12T08:31:29.899Z,24.50
2023-05-12T08:32:29.869Z,24.42
2023-05-12T08:33:29.881Z,24.54
2023-05-12T08:34:29.886Z,24.57
2023-05-12T08:35:29.932Z,24.57
2023-05-12T08:36:29.932Z,24.60
2023-05-12T08:37:31.378Z,24.56
2023-05-12T08:38:29.965Z,24.61
2023-05-12T08:39:29.966Z,24.67
2023-05-12T08:40:30.118Z,24.70
2023-05-12T08:41:29.939Z,24.72
2023-05-12T08:42:29.936Z,24.64
2023-05-12T08:43:29.927Z,24.74
2023-05-12T08:44:29.924Z,24.67
2023-05-12T08:45:29.912Z,24.67
2023-05-12T08:46:29.917Z,24.74
2023-05-12T08:47:29.939Z,24.77
2023-05-12T08:48:30.370Z,24.71
2023-05-12T08:49:29.853Z,24.59
2023-05-12T08:50:29.873Z,24.72
2023-05-12T08:51:30.857Z,24.68
2023-05-12T08:52:29.882Z,24.68
2023-05-12T08:53:29.861Z,24.74
2023-05-12T08:54:29.854Z,24.72
2023-05-12T08:55:33.844Z,24.70
2023-05-12T08:57:30.135Z,24.70
2023-05-12T08:58:40.463Z,24.63
2023-05-12T08:59:30.813Z,24.64
2023-05-12T09:00:29.833Z,24.54
2023-05-12T09:01:29.845Z,24.50
2023-05-12T09:02:41.149Z,24.43
2023-05-12T09:03:30.823Z,24.20
2023-05-12T09:04:29.819Z,24.40
2023-05-12T09:05:29.780Z,24.43
2023-05-12T09:06:29.768Z,24.46
2023-05-12T09:07:29.752Z,24.30
2023-05-12T09:08:29.749Z,24.44
2023-05-12T09:09:29.712Z,24.37
2023-05-12T09:10:34.400Z,24.43
2023-05-12T09:11:30.763Z,24.40
2023-05-12T09:12:29.752Z,24.33
2023-05-12T09:13:29.888Z,24.37
2023-05-12T09:14:29.693Z,24.34
2023-05-12T09:15:29.706Z,24.34
2023-05-12T09:16:29.730Z,24.42
2023-05-12T09:17:29.715Z,24.40
2023-05-12T09:18:29.752Z,24.30
2023-05-12T09:19:29.672Z,24.53
2023-05-12T09:20:31.786Z,24.57
2023-05-12T09:21:29.787Z,24.60
2023-05-12T09:22:29.828Z,24.52
2023-05-12T09:23:29.902Z,24.47
2023-05-12T09:24:29.863Z,24.36
2023-05-12T09:25:29.813Z,24.46
2023-05-12T09:26:29.821Z,24.34
2023-05-12T09:27:29.864Z,24.37
2023-05-12T09:28:29.925Z,24.46
2023-05-12T09:29:32.534Z,24.22
2023-05-12T09:30:29.922Z,24.27
2023-05-12T09:31:29.957Z,24.44
2023-05-12T09:32:29.959Z,24.29
2023-05-12T09:33:30.352Z,24.27
2023-05-12T09:34:29.857Z,24.44
2023-05-12T09:35:29.843Z,24.43
2023-05-12T09:36:29.837Z,24.42
2023-05-12T09:37:29.831Z,24.46
2023-05-12T09:38:29.830Z,24.39
2023-05-12T09:39:29.813Z,24.46
2023-05-12T09:40:29.861Z,24.33
2023-05-12T09:41:29.826Z,24.36
2023-05-12T09:42:29.795Z,24.44
2023-05-12T09:43:29.807Z,24.40
2023-05-12T09:44:29.815Z,24.56
2023-05-12T09:45:29.803Z,24.57
2023-05-12T09:46:29.954Z,24.63
2023-05-12T09:47:29.841Z,24.72
2023-05-12T09:48:29.772Z,24.67
2023-05-12T09:49:29.778Z,24.72
2023-05-12T09:50:40.866Z,24.52
2023-05-12T09:51:30.917Z,24.63
2023-05-12T09:52:29.899Z,24.64
2023-05-12T09:53:29.964Z,24.56
2023-05-12T09:54:30.412Z,24.71
2023-05-12T09:55:29.989Z,24.71
2023-05-12T09:56:29.997Z,24.68
2023-05-12T09:57:30.045Z,24.70
2023-05-12T09:58:30.040Z,24.70
2023-05-12T09:59:30.046Z,24.66
2023-05-12T10:00:36.982Z,24.71
2023-05-12T10:01:31.154Z,24.74
2023-05-12T10:02:30.182Z,24.71
2023-05-12T10:03:30.087Z,24.56
2023-05-12T10:04:30.113Z,24.53
2023-05-12T10:05:30.058Z,24.57
2023-05-12T10:06:30.038Z,24.67
2023-05-12T10:07:30.027Z,24.61
2023-05-12T10:08:30.062Z,24.72
2023-05-12T10:09:30.393Z,24.72
2023-05-12T10:10:30.019Z,24.70
2023-05-12T10:11:29.978Z,24.75
2023-05-12T10:12:30.041Z,24.80
2023-05-12T10:13:29.959Z,24.80
2023-05-12T10:14:30.391Z,24.81
2023-05-12T10:15:29.948Z,24.85
2023-05-12T10:16:30.023Z,24.84
2023-05-12T10:17:30.038Z,24.87
2023-05-12T10:18:30.008Z,24.87
2023-05-12T10:19:30.030Z,24.84
2023-05-12T10:20:30.054Z,24.81
2023-05-12T10:21:30.109Z,24.82
2023-05-12T10:22:30.142Z,24.85
2023-05-12T10:23:30.170Z,24.84
2023-05-12T10:24:30.395Z,24.80
2023-05-12T10:25:30.253Z,24.85
2023-05-12T10:26:30.256Z,24.82
2023-05-12T10:27:30.310Z,24.80
2023-05-12T10:28:30.346Z,24.81
2023-05-12T10:29:30.686Z,24.74
2023-05-12T10:30:30.451Z,24.84
2023-05-12T10:31:30.532Z,24.84
2023-05-12T10:32:30.625Z,24.81
2023-05-12T10:33:30.561Z,24.80
2023-05-12T10:34:30.905Z,24.77
2023-05-12T10:35:30.637Z,24.74
2023-05-12T10:36:30.709Z,24.81
2023-05-12T10:37:30.740Z,24.77
2023-05-12T10:38:30.827Z,24.77
2023-05-12T10:39:30.861Z,24.77
2023-05-12T10:40:30.876Z,24.77
2023-05-12T10:41:31.894Z,24.78
2023-05-12T10:42:30.943Z,24.75
2023-05-12T10:43:30.988Z,24.77
2023-05-12T10:44:30.995Z,24.75
2023-05-12T10:45:31.095Z,24.77
2023-05-12T10:46:31.162Z,24.70
2023-05-12T10:47:31.142Z,24.72
2023-05-12T10:48:31.199Z,24.66
2023-05-12T10:49:31.230Z,24.78
2023-05-12T10:50:31.263Z,24.78
2023-05-12T10:51:31.290Z,24.78
2023-05-12T10:52:31.298Z,24.75
2023-05-12T10:53:45.250Z,24.74
2023-05-12T10:54:32.364Z,24.75
2023-05-12T10:55:31.410Z,24.75
2023-05-12T10:56:31.659Z,24.74
2023-05-12T10:57:31.734Z,24.74
2023-05-12T10:58:31.699Z,24.72
2023-05-12T11:00:31.580Z,24.75
2023-05-12T11:01:31.717Z,24.80
2023-05-12T11:02:32.636Z,24.78
2023-05-12T11:03:32.154Z,24.78
2023-05-12T11:04:31.404Z,24.74
2023-05-12T11:05:31.931Z,24.80
2023-05-12T11:06:31.772Z,24.80
2023-05-12T11:07:32.878Z,24.84
2023-05-12T11:08:32.355Z,24.85
2023-05-12T11:09:31.490Z,24.87
2023-05-12T11:10:31.434Z,24.84
2023-05-12T11:11:32.343Z,24.80
2023-05-12T11:12:31.430Z,24.78
2023-05-12T11:13:31.474Z,24.80
2023-05-12T11:14:31.922Z,24.81
2023-05-12T11:15:31.553Z,24.85
2023-05-12T11:16:31.607Z,24.82
2023-05-12T11:17:31.660Z,24.87
2023-05-12T11:18:31.741Z,24.82
2023-05-12T11:19:31.691Z,24.82
2023-05-12T11:20:31.812Z,24.80
2023-05-12T11:21:31.784Z,24.78
2023-05-12T11:22:31.859Z,24.80
2023-05-12T11:23:31.890Z,24.78
2023-05-12T11:24:32.896Z,24.72
2023-05-12T11:25:32.032Z,24.78
2023-05-12T11:26:31.982Z,24.77
2023-05-12T11:27:32.041Z,24.75
2023-05-12T11:28:32.112Z,24.67
2023-05-12T11:29:32.125Z,24.75
2023-05-12T11:30:32.165Z,24.75
2023-05-12T11:31:32.260Z,24.72
2023-05-12T11:32:32.355Z,24.74
2023-05-12T11:33:32.302Z,24.72
2023-05-12T11:34:32.389Z,24.74
2023-05-12T11:35:32.378Z,24.71
2023-05-12T11:36:32.494Z,24.74
2023-05-12T11:37:32.474Z,24.72
2023-05-12T11:38:32.492Z,24.72
2023-05-12T11:39:32.611Z,24.70
2023-05-12T11:40:32.608Z,24.68
2023-05-12T11:41:32.637Z,24.71
2023-05-12T11:42:32.718Z,24.72
2023-05-12T11:43:32.734Z,24.68
2023-05-12T11:44:32.813Z,24.74
2023-05-12T11:45:32.928Z,24.70
2023-05-12T11:46:32.893Z,24.71
2023-05-12T11:47:32.948Z,24.72
2023-05-12T11:48:32.992Z,24.71
2023-05-12T11:49:33.048Z,24.74
2023-05-12T11:50:33.048Z,24.72
2023-05-12T11:51:33.130Z,24.71
2023-05-12T11:52:33.197Z,24.72
2023-05-12T11:53:33.206Z,24.68
2023-05-12T11:54:33.406Z,24.70
2023-05-12T11:55:33.318Z,24.67
2023-05-12T11:56:33.352Z,24.68
2023-05-12T11:57:33.368Z,24.67
2023-05-12T11:58:35.574Z,24.67
2023-05-12T11:59:33.481Z,24.66
2023-05-12T12:00:33.528Z,24.66
2023-05-12T12:01:33.558Z,24.67
2023-05-12T12:02:33.851Z,24.66
2023-05-12T12:03:33.696Z,24.61
2023-05-12T12:04:33.874Z,24.66
2023-05-12T12:05:33.712Z,24.64
2023-05-12T12:06:33.772Z,24.63
2023-05-12T12:07:33.845Z,24.64
2023-05-12T12:08:33.873Z,24.64
2023-05-12T12:09:33.896Z,24.60
2023-05-12T12:10:33.949Z,24.63
2023-05-12T12:11:33.967Z,24.61
2023-05-12T12:12:34.049Z,24.63
2023-05-12T12:13:34.064Z,24.63
2023-05-12T12:14:34.109Z,24.63
2023-05-12T12:15:34.182Z,24.61
2023-05-12T12:16:34.272Z,24.66
2023-05-12T12:17:34.323Z,24.66
2023-05-12T12:18:34.281Z,24.64
2023-05-12T12:19:34.305Z,24.66
2023-05-12T12:20:34.347Z,24.70
2023-05-12T12:21:34.388Z,24.67
2023-05-12T12:22:34.838Z,24.71
2023-05-12T12:23:44.082Z,24.66
2023-05-12T12:24:35.973Z,24.71
2023-05-12T12:25:34.490Z,24.71
2023-05-12T12:26:34.483Z,24.70
2023-05-12T12:27:34.484Z,24.68
2023-05-12T12:28:34.482Z,24.68
2023-05-12T12:29:34.985Z,24.70
2023-05-12T12:30:34.448Z,24.75
2023-05-12T12:31:34.527Z,24.71
2023-05-12T12:32:34.491Z,24.74
2023-05-12T12:33:34.425Z,24.74
2023-05-12T12:34:34.430Z,24.70
2023-05-12T12:35:34.424Z,24.71
2023-05-12T12:36:34.470Z,24.72
2023-05-12T12:37:34.499Z,24.71
2023-05-12T12:38:34.532Z,24.70
2023-05-12T12:39:34.583Z,24.72
2023-05-12T12:40:34.770Z,24.71
2023-05-12T12:41:34.652Z,24.70
2023-05-12T12:42:34.678Z,24.71
2023-05-12T12:43:34.714Z,24.71
2023-05-12T12:44:34.933Z,24.70
2023-05-12T12:45:34.797Z,24.70
2023-05-12T12:46:34.837Z,24.72
2023-05-12T12:47:34.885Z,24.70
2023-05-12T12:48:34.920Z,24.71
2023-05-12T12:49:34.993Z,24.74
2023-05-12T12:50:34.999Z,24.72
2023-05-12T12:51:45.061Z,24.75
2023-05-12T12:52:36.026Z,24.75
2023-05-12T12:53:35.014Z,24.72
2023-05-12T12:54:35.029Z,24.72
2023-05-12T12:55:35.035Z,24.75